createdAt,value
2019-01-19T00:01:38.095Z,17.83
2019-01-19T00:04:37.988Z,22.97
2019-01-19T00:07:47.057Z,22.00
2019-01-19T00:10:49.027Z,21.33
2019-01-19T00:14:10.981Z,23.20
2019-01-19T00:17:36.020Z,28.90
2019-01-19T00:20:42.862Z,21.23
2019-01-19T00:24:00.954Z,24.93
2019-01-19T00:27:13.001Z,25.97
2019-01-19T00:30:43.952Z,20.13
2019-01-19T00:33:59.056Z,20.83
2019-01-19T00:37:06.109Z,24.40
2019-01-19T00:40:23.861Z,24.30
2019-01-19T00:43:26.243Z,37.30
2019-01-19T00:46:28.994Z,24.63
2019-01-19T00:49:30.387Z,20.03
2019-01-19T00:52:46.574Z,25.50
2019-01-19T00:55:31.544Z,22.40
2019-01-19T00:58:48.488Z,21.50
2019-01-19T01:02:01.484Z,25.17
2019-01-19T01:05:00.782Z,22.40
2019-01-19T01:08:17.560Z,18.73
2019-01-19T01:10:57.439Z,25.87
2019-01-19T01:13:38.573Z,23.30
2019-01-19T01:16:33.260Z,17.40
2019-01-19T01:19:36.742Z,26.87
2019-01-19T01:22:32.579Z,22.50
2019-01-19T01:25:54.869Z,22.97
2019-01-19T01:28:47.441Z,33.33
2019-01-19T01:31:35.256Z,20.30
2019-01-19T01:34:34.345Z,19.03
2019-01-19T01:37:46.840Z,19.10
2019-01-19T01:40:44.020Z,17.57
2019-01-19T01:43:46.586Z,20.53
2019-01-19T01:46:42.785Z,21.13
2019-01-19T01:49:36.310Z,17.43
2019-01-19T01:52:45.257Z,20.50
2019-01-19T01:55:25.204Z,23.80
2019-01-19T01:58:35.142Z,18.47
2019-01-19T02:01:38.367Z,20.67
2019-01-19T02:04:40.300Z,21.93
2019-01-19T02:07:25.906Z,18.00
2019-01-19T02:10:39.062Z,18.97
2019-01-19T02:13:38.716Z,20.30
2019-01-19T02:16:32.474Z,18.37
2019-01-19T02:19:42.384Z,29.73
2019-01-19T02:22:50.554Z,26.23
2019-01-19T02:26:15.446Z,12.93
2019-01-19T02:29:19.291Z,20.33
2019-01-19T02:32:03.497Z,25.47
2019-01-19T02:35:25.392Z,22.37
2019-01-19T02:38:32.529Z,16.90
2019-01-19T02:41:49.659Z,15.37
2019-01-19T02:44:37.068Z,21.90
2019-01-19T02:47:45.067Z,20.73
2019-01-19T02:50:49.923Z,16.13
2019-01-19T02:53:57.736Z,17.67
2019-01-19T02:56:54.424Z,17.10
2019-01-19T03:00:15.802Z,18.77
2019-01-19T03:03:31.602Z,21.50
2019-01-19T03:06:12.851Z,15.50
2019-01-19T03:08:52.906Z,15.60
2019-01-19T03:11:57.391Z,21.13
2019-01-19T03:15:06.649Z,22.40
2019-01-19T03:18:13.608Z,20.37
2019-01-19T03:21:22.623Z,14.00
2019-01-19T03:24:17.780Z,16.90
2019-01-19T03:27:07.734Z,23.50
2019-01-19T03:30:05.497Z,19.27
2019-01-19T03:33:04.006Z,21.10
2019-01-19T03:35:52.284Z,24.30
2019-01-19T03:38:57.591Z,17.87
2019-01-19T03:41:36.812Z,15.13
2019-01-19T03:44:48.895Z,22.70
2019-01-19T03:47:55.016Z,14.97
2019-01-19T03:50:52.321Z,18.43
2019-01-19T03:53:49.700Z,18.97
2019-01-19T03:56:59.534Z,18.17
2019-01-19T04:00:10.566Z,20.07
2019-01-19T04:03:18.429Z,15.43
2019-01-19T04:06:12.913Z,25.10
2019-01-19T04:09:18.385Z,18.63
2019-01-19T04:12:30.450Z,23.87
2019-01-19T04:15:44.782Z,27.00
2019-01-19T04:18:49.777Z,22.37
2019-01-19T04:21:45.771Z,18.83
2019-01-19T04:24:39.557Z,20.63
2019-01-19T04:27:11.306Z,16.73
2019-01-19T04:29:43.019Z,24.03
2019-01-19T04:32:14.785Z,15.27
2019-01-19T04:34:46.543Z,18.03
2019-01-19T04:37:18.296Z,22.40
2019-01-19T04:39:50.045Z,17.33
2019-01-19T04:42:22.112Z,19.93
2019-01-19T04:44:53.810Z,23.67
2019-01-19T04:47:25.610Z,22.30
2019-01-19T04:49:57.353Z,21.00
2019-01-19T04:52:29.070Z,24.57
2019-01-19T04:55:00.767Z,23.10
2019-01-19T04:57:32.441Z,33.87
2019-01-19T05:00:05.783Z,27.30
2019-01-19T05:02:37.494Z,24.57
2019-01-19T05:05:09.274Z,25.70
2019-01-19T05:07:40.993Z,19.13
2019-01-19T05:10:13.084Z,25.07
2019-01-19T05:12:44.825Z,24.87
2019-01-19T05:15:19.052Z,23.70
2019-01-19T05:17:51.267Z,24.73
2019-01-19T05:20:23.104Z,20.00
2019-01-19T05:22:54.799Z,21.20
2019-01-19T05:25:26.650Z,24.90
2019-01-19T05:27:58.410Z,21.23
2019-01-19T05:30:30.091Z,21.50
2019-01-19T05:33:01.810Z,16.57
2019-01-19T05:35:33.491Z,17.83
2019-01-19T05:38:05.313Z,16.17
2019-01-19T05:40:37.039Z,21.27
2019-01-19T05:43:20.659Z,22.90
2019-01-19T05:45:52.349Z,16.70
2019-01-19T05:48:24.047Z,23.73
2019-01-19T05:50:55.829Z,25.30
2019-01-19T05:53:27.599Z,23.00
2019-01-19T05:55:59.451Z,19.27
2019-01-19T05:58:31.109Z,16.57
2019-01-19T06:01:02.835Z,20.30
2019-01-19T06:03:34.654Z,23.87
2019-01-19T06:06:06.883Z,26.10
2019-01-19T06:08:38.568Z,23.83
2019-01-19T06:11:10.247Z,21.27
2019-01-19T06:13:42.896Z,19.13
2019-01-19T06:16:14.678Z,18.30
2019-01-19T06:18:46.925Z,25.47
2019-01-19T06:21:20.756Z,26.30
2019-01-19T06:23:52.434Z,19.77
2019-01-19T06:26:24.127Z,26.70
2019-01-19T06:28:57.360Z,23.57
2019-01-19T06:31:29.125Z,21.33
2019-01-19T06:34:00.896Z,24.83
2019-01-19T06:36:32.609Z,20.73
2019-01-19T06:39:06.861Z,26.60
2019-01-19T06:41:38.602Z,17.50
2019-01-19T06:44:10.314Z,28.53
2019-01-19T06:46:42.028Z,19.90
2019-01-19T06:49:13.779Z,21.80
2019-01-19T06:51:45.835Z,23.50
2019-01-19T06:54:17.730Z,19.43
2019-01-19T06:56:49.511Z,20.20
2019-01-19T06:59:21.273Z,18.17
2019-01-19T07:01:52.949Z,21.23
2019-01-19T07:04:24.606Z,16.23
2019-01-19T07:07:02.545Z,17.50
2019-01-19T07:09:30.097Z,16.93
2019-01-19T07:12:01.981Z,28.53
2019-01-19T07:14:33.751Z,24.70
2019-01-19T07:17:05.541Z,20.80
2019-01-19T07:19:37.213Z,17.87
2019-01-19T07:22:08.913Z,22.87
2019-01-19T07:24:40.598Z,25.77
2019-01-19T07:27:12.682Z,19.90
2019-01-19T07:29:44.379Z,18.77
2019-01-19T07:32:16.199Z,11.90
2019-01-19T07:34:48.018Z,16.97
2019-01-19T07:37:19.712Z,19.87
2019-01-19T07:39:51.392Z,18.83
2019-01-19T07:42:23.172Z,17.57
2019-01-19T07:44:55.324Z,23.40
2019-01-19T07:47:27.505Z,13.80
2019-01-19T07:49:59.207Z,15.90
2019-01-19T07:52:30.924Z,14.67
2019-01-19T07:55:02.680Z,17.43
2019-01-19T07:57:34.392Z,18.13
2019-01-19T08:00:27.088Z,17.97
2019-01-19T08:02:58.818Z,20.23
2019-01-19T08:05:30.491Z,19.70
2019-01-19T08:08:02.266Z,20.80
2019-01-19T08:10:33.925Z,17.20
2019-01-19T08:13:06.457Z,21.17
2019-01-19T08:15:38.215Z,16.83
2019-01-19T08:18:10.098Z,19.60
2019-01-19T08:20:41.813Z,14.27
2019-01-19T08:23:13.579Z,16.63
2019-01-19T08:25:45.375Z,14.10
2019-01-19T08:28:17.269Z,15.63
2019-01-19T08:30:49.103Z,17.17
2019-01-19T08:33:20.836Z,15.70
2019-01-19T08:35:53.175Z,13.20
2019-01-19T08:38:24.919Z,18.40
2019-01-19T08:40:56.691Z,14.93
2019-01-19T08:43:33.838Z,14.67
2019-01-19T08:46:05.555Z,14.30
2019-01-19T08:48:37.561Z,16.50
2019-01-19T08:51:09.415Z,15.37
2019-01-19T08:53:41.145Z,15.37
2019-01-19T08:56:12.866Z,20.20
2019-01-19T08:58:44.746Z,13.07
2019-01-19T09:01:16.554Z,10.70
2019-01-19T09:03:49.447Z,14.63
2019-01-19T09:06:21.199Z,15.57
2019-01-19T09:08:52.897Z,9.87
2019-01-19T09:11:24.680Z,10.80
2019-01-19T09:13:56.466Z,10.60
2019-01-19T09:16:28.532Z,12.57
2019-01-19T09:19:00.288Z,10.40
2019-01-19T09:21:31.979Z,12.23
2019-01-19T09:24:07.409Z,20.70
2019-01-19T09:26:39.070Z,13.50
2019-01-19T09:29:13.824Z,15.03
2019-01-19T09:31:45.255Z,14.70
2019-01-19T09:34:17.034Z,13.70
2019-01-19T09:36:49.112Z,13.67
2019-01-19T09:39:20.807Z,13.93
2019-01-19T09:41:52.508Z,15.53
2019-01-19T09:44:24.283Z,12.50
2019-01-19T09:46:56.077Z,14.40
2019-01-19T09:49:27.788Z,11.97
2019-01-19T09:52:01.591Z,10.00
2019-01-19T09:54:33.299Z,14.77
2019-01-19T09:57:05.018Z,8.47
2019-01-19T09:59:36.742Z,13.07
2019-01-19T10:02:08.537Z,10.73
2019-01-19T10:04:40.285Z,11.87
2019-01-19T10:07:12.080Z,14.07
2019-01-19T10:09:55.741Z,11.07
2019-01-19T10:12:27.523Z,13.80
2019-01-19T10:14:59.279Z,9.83
2019-01-19T10:17:31.339Z,12.37
2019-01-19T10:20:03.208Z,13.90
2019-01-19T10:22:34.918Z,15.87
2019-01-19T10:25:07.637Z,11.43
2019-01-19T10:27:39.366Z,11.13
2019-01-19T10:30:15.319Z,12.97
2019-01-19T10:32:47.121Z,13.80
2019-01-19T10:35:18.827Z,15.03
2019-01-19T10:37:56.231Z,11.97
2019-01-19T10:40:23.987Z,15.73
2019-01-19T10:42:55.740Z,13.53
2019-01-19T10:45:27.844Z,11.40
2019-01-19T10:47:59.609Z,14.03
2019-01-19T10:50:31.369Z,13.73
2019-01-19T10:53:03.043Z,10.63
2019-01-19T10:55:34.964Z,12.67
2019-01-19T10:58:06.649Z,13.87
2019-01-19T11:00:38.381Z,11.37
2019-01-19T11:03:10.172Z,14.30
2019-01-19T11:05:41.938Z,12.13
2019-01-19T11:08:14.003Z,11.80
2019-01-19T11:10:45.738Z,10.20
2019-01-19T11:13:17.428Z,12.47
2019-01-19T11:15:49.248Z,10.37
2019-01-19T11:18:20.962Z,14.20
2019-01-19T11:20:52.641Z,11.17
2019-01-19T11:23:24.310Z,11.63
2019-01-19T11:25:56.133Z,12.33
2019-01-19T11:28:27.871Z,11.87
2019-01-19T11:30:59.553Z,9.00
2019-01-19T11:33:31.237Z,9.63
2019-01-19T11:36:02.936Z,13.30
2019-01-19T11:38:34.695Z,8.97
2019-01-19T11:41:06.475Z,12.03
2019-01-19T11:43:38.189Z,11.77
2019-01-19T11:46:09.937Z,15.00
2019-01-19T11:48:41.685Z,16.03
2019-01-19T11:51:13.356Z,12.97
2019-01-19T11:53:45.021Z,11.20
2019-01-19T11:56:17.029Z,17.50
2019-01-19T11:58:48.768Z,9.73
2019-01-19T12:01:20.462Z,10.30
2019-01-19T12:03:52.116Z,12.33
2019-01-19T12:06:23.792Z,11.63
2019-01-19T12:08:55.492Z,11.40
2019-01-19T12:11:27.163Z,12.60
2019-01-19T12:14:00.503Z,14.73
2019-01-19T12:16:33.602Z,8.83
2019-01-19T12:19:05.428Z,15.77
2019-01-19T12:21:37.222Z,13.27
2019-01-19T12:24:09.023Z,12.27
2019-01-19T12:26:40.742Z,10.77
2019-01-19T12:29:12.821Z,12.10
2019-01-19T12:31:44.590Z,13.50
2019-01-19T12:34:16.300Z,13.20
2019-01-19T12:36:47.984Z,9.83
2019-01-19T12:39:19.750Z,18.27
2019-01-19T12:41:51.494Z,10.43
2019-01-19T12:44:23.190Z,12.67
2019-01-19T12:46:54.948Z,10.10
2019-01-19T12:49:26.627Z,13.87
2019-01-19T12:51:58.326Z,14.63
2019-01-19T12:54:30.062Z,11.33
2019-01-19T12:57:01.826Z,15.73
2019-01-19T12:59:33.635Z,14.83
2019-01-19T13:02:05.425Z,10.33
2019-01-19T13:04:37.064Z,9.87
2019-01-19T13:07:12.996Z,14.40
2019-01-19T13:09:57.862Z,13.97
2019-01-19T13:12:33.529Z,13.37
2019-01-19T13:15:55.729Z,11.77
2019-01-19T13:18:50.913Z,15.50
2019-01-19T13:22:04.005Z,10.33
2019-01-19T13:25:35.197Z,16.67
2019-01-19T13:28:37.289Z,12.60
2019-01-19T13:32:05.212Z,13.17
2019-01-19T13:35:30.435Z,10.40
2019-01-19T13:38:42.240Z,15.87
2019-01-19T13:41:50.179Z,12.73
2019-01-19T13:45:02.843Z,14.83
2019-01-19T13:48:04.852Z,12.97
2019-01-19T13:51:33.111Z,9.40
2019-01-19T13:54:41.946Z,12.07
2019-01-19T13:57:21.830Z,12.23
2019-01-19T14:00:25.332Z,13.90
2019-01-19T14:03:54.179Z,15.10
2019-01-19T14:07:13.054Z,9.33
2019-01-19T14:10:21.458Z,11.93
2019-01-19T14:13:30.854Z,10.13
2019-01-19T14:16:46.924Z,13.80
2019-01-19T14:20:08.855Z,10.57
2019-01-19T14:23:12.120Z,9.40
2019-01-19T14:26:25.789Z,10.17
2019-01-19T14:29:59.894Z,11.67
2019-01-19T14:32:57.730Z,9.60
2019-01-19T14:36:20.302Z,16.27
2019-01-19T14:39:15.382Z,9.67
2019-01-19T14:42:15.631Z,10.20
2019-01-19T14:45:11.039Z,11.23
2019-01-19T14:48:15.261Z,11.47
2019-01-19T14:51:09.915Z,17.73
2019-01-19T14:54:07.729Z,11.87
2019-01-19T14:57:10.689Z,11.37
2019-01-19T15:00:05.657Z,11.43
2019-01-19T15:03:36.564Z,16.53
2019-01-19T15:06:23.861Z,9.57
2019-01-19T15:09:29.970Z,13.30
2019-01-19T15:12:46.623Z,14.97
2019-01-19T15:15:44.680Z,18.23
2019-01-19T15:19:04.815Z,18.00
2019-01-19T15:22:29.857Z,13.87
2019-01-19T15:25:16.608Z,12.53
2019-01-19T15:28:17.329Z,12.83
2019-01-19T15:30:58.443Z,11.70
2019-01-19T15:34:16.734Z,12.53
2019-01-19T15:37:16.339Z,13.03
2019-01-19T15:40:24.844Z,12.07
2019-01-19T15:43:42.119Z,12.00
2019-01-19T15:47:00.229Z,8.20
2019-01-19T15:50:12.244Z,11.47
2019-01-19T15:53:18.324Z,11.20
2019-01-19T15:56:50.829Z,14.00
2019-01-19T15:59:50.136Z,12.13
2019-01-19T16:03:09.359Z,14.60
2019-01-19T16:06:18.769Z,12.37
2019-01-19T16:09:44.187Z,16.87
2019-01-19T16:12:45.962Z,16.40
2019-01-19T16:15:51.365Z,13.83
2019-01-19T16:19:04.383Z,16.70
2019-01-19T16:22:14.815Z,16.93
2019-01-19T16:25:04.048Z,16.73
2019-01-19T16:28:04.147Z,14.77
2019-01-19T16:31:02.662Z,13.23
2019-01-19T16:34:00.946Z,15.87
2019-01-19T16:36:57.481Z,25.50
2019-01-19T16:39:55.739Z,18.73
2019-01-19T16:43:01.103Z,18.53
2019-01-19T16:46:04.342Z,17.93
2019-01-19T16:49:00.710Z,17.87
2019-01-19T16:51:56.338Z,21.90
2019-01-19T16:54:56.188Z,15.37
2019-01-19T16:58:36.502Z,24.13
2019-01-19T17:02:17.029Z,18.27
2019-01-19T17:05:05.518Z,13.30
2019-01-19T17:08:32.326Z,20.33
2019-01-19T17:11:33.132Z,20.43
2019-01-19T17:14:45.817Z,24.20
2019-01-19T17:18:05.809Z,19.23
2019-01-19T17:21:34.164Z,14.93
2019-01-19T17:24:28.651Z,21.03
2019-01-19T17:27:38.557Z,16.17
2019-01-19T17:30:31.006Z,19.80
2019-01-19T17:33:39.125Z,17.47
2019-01-19T17:36:52.074Z,16.13
2019-01-19T17:39:53.587Z,18.73
2019-01-19T17:43:10.483Z,19.07
2019-01-19T17:46:34.202Z,19.83
2019-01-19T17:49:17.609Z,19.83
2019-01-19T17:52:19.797Z,19.00
2019-01-19T17:55:27.700Z,20.80
2019-01-19T17:58:36.459Z,24.60
2019-01-19T18:01:49.162Z,13.83
2019-01-19T18:05:01.932Z,19.37
2019-01-19T18:07:54.836Z,18.30
2019-01-19T18:10:44.583Z,16.30
2019-01-19T18:13:50.589Z,21.83
2019-01-19T18:16:59.447Z,22.33
2019-01-19T18:20:00.023Z,19.37
2019-01-19T18:23:08.957Z,18.77
2019-01-19T18:26:11.340Z,24.63
2019-01-19T18:29:19.912Z,15.60
2019-01-19T18:32:17.130Z,15.53
2019-01-19T18:35:03.075Z,17.73
2019-01-19T18:38:04.828Z,20.57
2019-01-19T18:41:32.840Z,21.77
2019-01-19T18:44:24.283Z,19.07
2019-01-19T18:47:48.077Z,15.93
2019-01-19T18:51:01.221Z,15.70
2019-01-19T18:53:52.252Z,21.10
2019-01-19T18:56:49.555Z,19.87
2019-01-19T18:59:49.439Z,18.13
2019-01-19T19:03:02.134Z,27.03
2019-01-19T19:05:59.881Z,19.27
2019-01-19T19:09:06.921Z,21.57
2019-01-19T19:12:15.470Z,18.37
2019-01-19T19:15:32.594Z,22.83
2019-01-19T19:19:03.626Z,17.43
2019-01-19T19:22:15.204Z,22.03
2019-01-19T19:25:17.351Z,21.57
2019-01-19T19:28:20.649Z,18.37
2019-01-19T19:31:32.648Z,24.10
2019-01-19T19:34:42.220Z,18.73
2019-01-19T19:37:57.696Z,18.80
2019-01-19T19:41:08.086Z,20.47
2019-01-19T19:44:20.064Z,22.63
2019-01-19T19:47:02.253Z,21.87
2019-01-19T19:49:41.198Z,19.50
2019-01-19T19:52:12.872Z,20.97
2019-01-19T19:54:52.672Z,24.53
2019-01-19T19:57:24.425Z,21.40
2019-01-19T19:59:56.136Z,25.23
2019-01-19T20:02:29.238Z,21.70
2019-01-19T20:05:01.090Z,22.50
2019-01-19T20:07:32.778Z,22.60
2019-01-19T20:10:05.144Z,20.23
2019-01-19T20:12:36.871Z,22.10
2019-01-19T20:15:08.823Z,20.43
2019-01-19T20:17:40.513Z,23.50
2019-01-19T20:20:12.443Z,21.33
2019-01-19T20:22:44.154Z,27.17
2019-01-19T20:25:15.898Z,22.00
2019-01-19T20:27:47.577Z,25.67
2019-01-19T20:30:19.283Z,28.70
2019-01-19T20:32:51.069Z,20.03
2019-01-19T20:35:22.828Z,29.10
2019-01-19T20:37:54.503Z,26.30
2019-01-19T20:40:26.254Z,25.07
2019-01-19T20:42:58.087Z,24.37
2019-01-19T20:45:29.847Z,23.73
2019-01-19T20:48:02.665Z,23.43
2019-01-19T20:50:34.389Z,28.10
2019-01-19T20:53:06.155Z,25.73
2019-01-19T20:55:37.853Z,23.43
2019-01-19T20:58:09.672Z,26.47
2019-01-19T21:00:41.534Z,28.70
2019-01-19T21:03:13.212Z,19.67
2019-01-19T21:05:44.914Z,21.07
2019-01-19T21:08:16.680Z,23.63
2019-01-19T21:10:48.484Z,26.23
2019-01-19T21:13:20.234Z,28.47
2019-01-19T21:15:51.891Z,20.97
2019-01-19T21:18:23.619Z,21.07
2019-01-19T21:20:55.309Z,24.37
2019-01-19T21:23:26.995Z,25.57
2019-01-19T21:25:59.056Z,26.87
2019-01-19T21:28:30.825Z,27.30
2019-01-19T21:31:02.540Z,26.63
2019-01-19T21:33:34.311Z,25.03
2019-01-19T21:36:06.116Z,25.33
2019-01-19T21:38:37.909Z,26.40
2019-01-19T21:41:09.657Z,25.37
2019-01-19T21:43:41.363Z,26.60
2019-01-19T21:46:13.123Z,26.27
2019-01-19T21:48:44.861Z,24.80
2019-01-19T21:51:16.537Z,30.13
2019-01-19T21:53:48.239Z,28.13
2019-01-19T21:56:20.017Z,24.07
2019-01-19T21:58:51.747Z,25.53
2019-01-19T22:01:23.462Z,25.47
2019-01-19T22:03:55.206Z,30.37
2019-01-19T22:06:26.893Z,23.17
2019-01-19T22:08:58.627Z,27.77
2019-01-19T22:11:30.327Z,27.33
2019-01-19T22:14:02.021Z,25.27
2019-01-19T22:16:33.777Z,23.73
2019-01-19T22:19:05.761Z,24.10
2019-01-19T22:21:37.521Z,23.03
2019-01-19T22:24:09.229Z,28.10
2019-01-19T22:26:41.915Z,29.23
2019-01-19T22:29:13.725Z,22.93
2019-01-19T22:31:45.513Z,22.93
2019-01-19T22:34:17.221Z,26.30
2019-01-19T22:36:49.005Z,25.27
2019-01-19T22:39:20.789Z,24.23
2019-01-19T22:41:52.467Z,24.57
2019-01-19T22:44:24.176Z,19.00
2019-01-19T22:46:55.932Z,23.90
2019-01-19T22:49:27.676Z,26.63
2019-01-19T22:51:59.493Z,24.43
2019-01-19T22:54:31.270Z,27.37
2019-01-19T22:57:02.965Z,31.23
2019-01-19T22:59:34.799Z,23.23
2019-01-19T23:02:09.999Z,22.70
2019-01-19T23:04:41.783Z,22.40
2019-01-19T23:07:13.505Z,28.07
2019-01-19T23:09:45.280Z,22.63
2019-01-19T23:12:16.945Z,21.83
2019-01-19T23:14:48.742Z,27.57
2019-01-19T23:17:20.523Z,25.73
2019-01-19T23:19:52.305Z,19.50
2019-01-19T23:22:25.117Z,23.90
2019-01-19T23:24:58.195Z,23.57
2019-01-19T23:27:29.975Z,24.90
2019-01-19T23:30:01.738Z,21.03
2019-01-19T23:32:33.415Z,23.67
2019-01-19T23:35:06.035Z,23.63
2019-01-19T23:37:37.806Z,25.17
2019-01-19T23:40:09.538Z,17.00
2019-01-19T23:42:47.076Z,19.73
2019-01-19T23:45:14.915Z,20.03
2019-01-19T23:47:47.503Z,20.40
2019-01-19T23:50:19.283Z,23.40
2019-01-19T23:52:50.970Z,21.60
2019-01-19T23:55:22.671Z,22.97
2019-01-19T23:57:54.404Z,27.40
